sensor_id;sensor_type;location;lat;lon;timestamp;pressure;altitude;pressure_sealevel;temperature;humidity
10897;BME280;5501;51.176;6.470;2023-11-19T00:00:15;100419.28;;;13.03;100.00
10897;BME280;5501;51.176;6.470;2023-11-19T00:05:17;100435.78;;;13.12;100.00
10897;BME280;5501;51.176;6.470;2023-11-19T00:10:20;100432.28;;;13.12;100.00
10897;BME280;5501;51.176;6.470;2023-11-19T00:15:22;100435.38;;;13.21;100.00
10897;BME280;5501;51.176;6.470;2023-11-19T00:20:25;100427.38;;;13.21;100.00
10897;BME280;5501;51.176;6.470;2023-11-19T00:25:27;100426.59;;;13.39;100.00
10897;BME280;5501;51.176;6.470;2023-11-19T00:30:28;100422.97;;;13.40;100.00
10897;BME280;5501;51.176;6.470;2023-11-19T00:35:30;100411.56;;;13.37;100.00
10897;BME280;5501;51.176;6.470;2023-11-19T00:40:33;100423.69;;;13.44;100.00
10897;BME280;5501;51.176;6.470;2023-11-19T00:45:34;100428.13;;;13.45;100.00
10897;BME280;5501;51.176;6.470;2023-11-19T00:50:36;100417.28;;;13.48;100.00
10897;BME280;5501;51.176;6.470;2023-11-19T00:55:39;100415.03;;;13.39;100.00
10897;BME280;5501;51.176;6.470;2023-11-19T01:00:44;100411.16;;;13.46;100.00
10897;BME280;5501;51.176;6.470;2023-11-19T01:05:46;100401.56;;;13.42;100.00
10897;BME280;5501;51.176;6.470;2023-11-19T01:10:48;100401.31;;;13.46;100.00
10897;BME280;5501;51.176;6.470;2023-11-19T01:15:49;100395.00;;;13.49;100.00
10897;BME280;5501;51.176;6.470;2023-11-19T01:20:51;100394.72;;;13.55;100.00
10897;BME280;5501;51.176;6.470;2023-11-19T01:25:53;100395.53;;;13.57;100.00
10897;BME280;5501;51.176;6.470;2023-11-19T01:30:54;100412.34;;;13.59;100.00
10897;BME280;5501;51.176;6.470;2023-11-19T01:35:56;100413.28;;;13.58;100.00
10897;BME280;5501;51.176;6.470;2023-11-19T01:41:00;100423.16;;;13.56;100.00
10897;BME280;5501;51.176;6.470;2023-11-19T01:46:05;100407.00;;;13.59;100.00
10897;BME280;5501;51.176;6.470;2023-11-19T01:51:08;100416.63;;;13.63;100.00
10897;BME280;5501;51.176;6.470;2023-11-19T01:56:13;100400.09;;;13.73;100.00
10897;BME280;5501;51.176;6.470;2023-11-19T02:01:16;100405.72;;;13.67;100.00
10897;BME280;5501;51.176;6.470;2023-11-19T02:06:18;100397.06;;;13.81;100.00
10897;BME280;5501;51.176;6.470;2023-11-19T02:11:19;100382.63;;;13.85;100.00
10897;BME280;5501;51.176;6.470;2023-11-19T02:16:21;100372.94;;;13.82;100.00
10897;BME280;5501;51.176;6.470;2023-11-19T02:21:23;100350.53;;;13.85;100.00
10897;BME280;5501;51.176;6.470;2023-11-19T02:27:00;100354.91;;;13.87;100.00
10897;BME280;5501;51.176;6.470;2023-11-19T02:31:52;100337.53;;;13.77;100.00
10897;BME280;5501;51.176;6.470;2023-11-19T02:36:56;100349.25;;;13.75;100.00
10897;BME280;5501;51.176;6.470;2023-11-19T02:41:58;100359.06;;;13.74;100.00
10897;BME280;5501;51.176;6.470;2023-11-19T02:47:01;100360.25;;;13.87;100.00
10897;BME280;5501;51.176;6.470;2023-11-19T02:52:06;100350.72;;;13.82;100.00
10897;BME280;5501;51.176;6.470;2023-11-19T02:57:08;100336.09;;;13.89;100.00
10897;BME280;5501;51.176;6.470;2023-11-19T03:02:23;100341.44;;;13.89;100.00
10897;BME280;5501;51.176;6.470;2023-11-19T03:07:26;100335.25;;;13.88;100.00
10897;BME280;5501;51.176;6.470;2023-11-19T03:12:28;100327.28;;;13.87;100.00
10897;BME280;5501;51.176;6.470;2023-11-19T03:17:30;100339.28;;;13.97;100.00
10897;BME280;5501;51.176;6.470;2023-11-19T03:22:31;100335.69;;;13.98;100.00
10897;BME280;5501;51.176;6.470;2023-11-19T03:27:36;100335.22;;;14.07;100.00
10897;BME280;5501;51.176;6.470;2023-11-19T03:32:38;100344.34;;;14.03;100.00
10897;BME280;5501;51.176;6.470;2023-11-19T03:37:40;100340.72;;;14.04;100.00
10897;BME280;5501;51.176;6.470;2023-11-19T03:42:42;100341.44;;;13.89;100.00
10897;BME280;5501;51.176;6.470;2023-11-19T03:47:44;100349.97;;;13.97;100.00
10897;BME280;5501;51.176;6.470;2023-11-19T03:52:46;100352.94;;;13.91;100.00
10897;BME280;5501;51.176;6.470;2023-11-19T03:57:48;100354.16;;;13.84;100.00
10897;BME280;5501;51.176;6.470;2023-11-19T04:02:50;100353.22;;;13.85;100.00
10897;BME280;5501;51.176;6.470;2023-11-19T04:07:51;100354.72;;;13.72;100.00
10897;BME280;5501;51.176;6.470;2023-11-19T04:12:53;100340.59;;;13.70;100.00
10897;BME280;5501;51.176;6.470;2023-11-19T04:17:55;100346.19;;;13.64;100.00
10897;BME280;5501;51.176;6.470;2023-11-19T04:22:57;100361.63;;;13.57;100.00
10897;BME280;5501;51.176;6.470;2023-11-19T04:27:58;100355.59;;;13.54;100.00
10897;BME280;5501;51.176;6.470;2023-11-19T04:33:00;100371.63;;;13.54;100.00
10897;BME280;5501;51.176;6.470;2023-11-19T04:38:02;100360.94;;;13.54;100.00
10897;BME280;5501;51.176;6.470;2023-11-19T04:43:03;100369.47;;;13.62;100.00
10897;BME280;5501;51.176;6.470;2023-11-19T04:48:05;100351.53;;;13.64;100.00
10897;BME280;5501;51.176;6.470;2023-11-19T04:53:07;100352.56;;;13.61;100.00
10897;BME280;5501;51.176;6.470;2023-11-19T04:58:08;100363.66;;;13.52;100.00
10897;BME280;5501;51.176;6.470;2023-11-19T05:03:10;100358.50;;;13.48;100.00
10897;BME280;5501;51.176;6.470;2023-11-19T05:08:12;100360.94;;;13.54;100.00
10897;BME280;5501;51.176;6.470;2023-11-19T05:13:14;100368.41;;;13.46;100.00
10897;BME280;5501;51.176;6.470;2023-11-19T05:18:16;100362.94;;;13.49;100.00
10897;BME280;5501;51.176;6.470;2023-11-19T05:23:18;100366.13;;;13.57;100.00
10897;BME280;5501;51.176;6.470;2023-11-19T05:28:22;100363.78;;;13.49;100.00
10897;BME280;5501;51.176;6.470;2023-11-19T05:33:26;100388.06;;;13.45;100.00
10897;BME280;5501;51.176;6.470;2023-11-19T05:38:27;100385.75;;;13.56;100.00
10897;BME280;5501;51.176;6.470;2023-11-19T05:43:30;100394.13;;;13.48;100.00
10897;BME280;5501;51.176;6.470;2023-11-19T05:48:32;100385.75;;;13.56;100.00
10897;BME280;5501;51.176;6.470;2023-11-19T05:53:34;100404.47;;;13.56;100.00
10897;BME280;5501;51.176;6.470;2023-11-19T05:58:36;100401.41;;;13.45;100.00
10897;BME280;5501;51.176;6.470;2023-11-19T06:03:38;100414.31;;;13.35;100.00
10897;BME280;5501;51.176;6.470;2023-11-19T06:08:40;100410.22;;;13.27;100.00
10897;BME280;5501;51.176;6.470;2023-11-19T06:13:42;100399.41;;;13.30;100.00
10897;BME280;5501;51.176;6.470;2023-11-19T06:18:44;100433.19;;;13.31;100.00
10897;BME280;5501;51.176;6.470;2023-11-19T06:23:46;100434.06;;;13.31;100.00
10897;BME280;5501;51.176;6.470;2023-11-19T06:28:48;100428.84;;;13.28;100.00
10897;BME280;5501;51.176;6.470;2023-11-19T06:33:50;100415.56;;;13.27;100.00
10897;BME280;5501;51.176;6.470;2023-11-19T06:38:51;100432.53;;;13.26;100.00
10897;BME280;5501;51.176;6.470;2023-11-19T06:43:53;100424.50;;;13.26;100.00
10897;BME280;5501;51.176;6.470;2023-11-19T06:48:54;100425.03;;;13.14;100.00
10897;BME280;5501;51.176;6.470;2023-11-19T06:53:56;100437.06;;;13.04;100.00
10897;BME280;5501;51.176;6.470;2023-11-19T06:58:57;100417.84;;;12.94;100.00
10897;BME280;5501;51.176;6.470;2023-11-19T07:03:59;100435.06;;;12.87;100.00
10897;BME280;5501;51.176;6.470;2023-11-19T07:09:02;100452.38;;;12.99;100.00
10897;BME280;5501;51.176;6.470;2023-11-19T07:14:13;100448.81;;;13.00;100.00
10897;BME280;5501;51.176;6.470;2023-11-19T07:19:15;100461.22;;;13.01;100.00
10897;BME280;5501;51.176;6.470;2023-11-19T07:24:17;100465.16;;;13.12;100.00
10897;BME280;5501;51.176;6.470;2023-11-19T07:29:18;100448.81;;;13.00;100.00
10897;BME280;5501;51.176;6.470;2023-11-19T07:34:24;100447.03;;;12.99;100.00
10897;BME280;5501;51.176;6.470;2023-11-19T07:39:26;100454.66;;;12.86;100.00
10897;BME280;5501;51.176;6.470;2023-11-19T07:44:28;100458.06;;;12.90;100.00
10897;BME280;5501;51.176;6.470;2023-11-19T07:49:29;100459.34;;;12.81;100.00
10897;BME280;5501;51.176;6.470;2023-11-19T07:54:32;100467.03;;;12.89;100.00
10897;BME280;5501;51.176;6.470;2023-11-19T07:59:33;100462.41;;;12.92;100.00
10897;BME280;5501;51.176;6.470;2023-11-19T08:04:35;100482.44;;;13.04;100.00
10897;BME280;5501;51.176;6.470;2023-11-19T08:09:37;100477.56;;;12.92;100.00
10897;BME280;5501;51.176;6.470;2023-11-19T08:14:38;100484.41;;;12.99;100.00
10897;BME280;5501;51.176;6.470;2023-11-19T08:19:40;100493.84;;;13.07;100.00
10897;BME280;5501;51.176;6.470;2023-11-19T08:24:42;100493.41;;;13.18;100.00
10897;BME280;5501;51.176;6.470;2023-11-19T08:29:44;100482.19;;;13.10;100.00
10897;BME280;5501;51.176;6.470;2023-11-19T08:34:46;100486.13;;;13.21;100.00
10897;BME280;5501;51.176;6.470;2023-11-19T08:39:48;100487.13;;;13.19;100.00
10897;BME280;5501;51.176;6.470;2023-11-19T08:44:50;100508.91;;;13.30;100.00
10897;BME280;5501;51.176;6.470;2023-11-19T08:49:55;100512.38;;;13.32;100.00
10897;BME280;5501;51.176;6.470;2023-11-19T08:54:59;100520.31;;;13.33;100.00
10897;BME280;5501;51.176;6.470;2023-11-19T09:00:01;100506.78;;;13.38;100.00
10897;BME280;5501;51.176;6.470;2023-11-19T09:05:05;100514.28;;;13.50;100.00
10897;BME280;5501;51.176;6.470;2023-11-19T09:10:09;100510.94;;;13.45;100.00
10897;BME280;5501;51.176;6.470;2023-11-19T09:15:13;100505.09;;;13.57;100.00
10897;BME280;5501;51.176;6.470;2023-11-19T09:20:14;100507.28;;;13.67;100.00
10897;BME280;5501;51.176;6.470;2023-11-19T09:25:17;100498.78;;;13.58;100.00
10897;BME280;5501;51.176;6.470;2023-11-19T09:30:19;100508.81;;;13.53;100.00
10897;BME280;5501;51.176;6.470;2023-11-19T09:35:20;100514.88;;;13.56;100.00
10897;BME280;5501;51.176;6.470;2023-11-19T09:40:22;100515.47;;;13.63;100.00
10897;BME280;5501;51.176;6.470;2023-11-19T09:45:28;100508.00;;;13.71;100.00
10897;BME280;5501;51.176;6.470;2023-11-19T09:50:31;100510.91;;;13.85;99.25
10897;BME280;5501;51.176;6.470;2023-11-19T09:55:32;100505.31;;;13.91;98.56
10897;BME280;5501;51.176;6.470;2023-11-19T10:00:34;100512.28;;;13.95;99.18
10897;BME280;5501;51.176;6.470;2023-11-19T10:05:36;100503.84;;;13.84;99.87
10897;BME280;5501;51.176;6.470;2023-11-19T10:10:39;100485.41;;;13.98;98.89
10897;BME280;5501;51.176;6.470;2023-11-19T10:15:43;100490.97;;;14.12;97.76
10897;BME280;5501;51.176;6.470;2023-11-19T10:20:45;100494.72;;;14.08;97.36
10897;BME280;5501;51.176;6.470;2023-11-19T10:25:47;100493.66;;;14.12;97.03
10897;BME280;5501;51.176;6.470;2023-11-19T10:30:48;100481.28;;;14.09;96.50
10897;BME280;5501;51.176;6.470;2023-11-19T10:35:52;100493.53;;;14.15;95.84
10897;BME280;5501;51.176;6.470;2023-11-19T10:40:57;100501.41;;;14.38;94.46
10897;BME280;5501;51.176;6.470;2023-11-19T10:46:10;100496.91;;;14.38;93.84
10897;BME280;5501;51.176;6.470;2023-11-19T10:51:13;100486.06;;;14.41;92.43
10897;BME280;5501;51.176;6.470;2023-11-19T10:56:25;100495.38;;;14.51;91.42
10897;BME280;5501;51.176;6.470;2023-11-19T11:01:45;100493.44;;;14.55;89.88
10897;BME280;5501;51.176;6.470;2023-11-19T11:06:47;100482.56;;;14.39;91.79
10897;BME280;5501;51.176;6.470;2023-11-19T11:11:50;100480.25;;;14.32;93.36
10897;BME280;5501;51.176;6.470;2023-11-19T11:16:56;100486.31;;;14.54;92.86
10897;BME280;5501;51.176;6.470;2023-11-19T11:22:00;100474.75;;;14.72;92.15
10897;BME280;5501;51.176;6.470;2023-11-19T11:27:29;100465.53;;;14.60;91.58
10897;BME280;5501;51.176;6.470;2023-11-19T11:32:45;100469.13;;;14.59;89.23
10897;BME280;5501;51.176;6.470;2023-11-19T11:37:55;100454.47;;;14.85;89.38
10897;BME280;5501;51.176;6.470;2023-11-19T11:43:02;100452.66;;;14.85;89.87
10897;BME280;5501;51.176;6.470;2023-11-19T11:48:08;100452.53;;;15.05;87.65
10897;BME280;5501;51.176;6.470;2023-11-19T11:53:20;100462.31;;;14.71;87.68
10897;BME280;5501;51.176;6.470;2023-11-19T11:58:29;100463.63;;;14.62;89.14
10897;BME280;5501;51.176;6.470;2023-11-19T12:03:34;100454.88;;;14.59;90.10
10897;BME280;5501;51.176;6.470;2023-11-19T12:08:36;100447.03;;;14.73;90.33
10897;BME280;5501;51.176;6.470;2023-11-19T12:13:55;100438.88;;;14.76;90.03
10897;BME280;5501;51.176;6.470;2023-11-19T12:19:04;100434.78;;;14.86;89.04
10897;BME280;5501;51.176;6.470;2023-11-19T12:24:09;100443.06;;;14.81;89.83
10897;BME280;5501;51.176;6.470;2023-11-19T12:29:12;100439.06;;;14.36;99.57
10897;BME280;5501;51.176;6.470;2023-11-19T12:34:14;100425.72;;;14.16;100.00
10897;BME280;5501;51.176;6.470;2023-11-19T12:39:16;100411.97;;;14.05;100.00
10897;BME280;5501;51.176;6.470;2023-11-19T12:44:17;100414.97;;;14.36;100.00
10897;BME280;5501;51.176;6.470;2023-11-19T12:49:19;100422.06;;;14.37;98.89
10897;BME280;5501;51.176;6.470;2023-11-19T12:54:32;100421.53;;;14.29;99.33
10897;BME280;5501;51.176;6.470;2023-11-19T12:59:33;100421.59;;;14.46;97.91
10897;BME280;5501;51.176;6.470;2023-11-19T13:04:35;100420.81;;;14.44;98.21
10897;BME280;5501;51.176;6.470;2023-11-19T13:09:37;100427.47;;;14.35;97.64
10897;BME280;5501;51.176;6.470;2023-11-19T13:14:39;100433.56;;;14.39;97.04
10897;BME280;5501;51.176;6.470;2023-11-19T13:19:41;100436.31;;;14.37;97.34
10897;BME280;5501;51.176;6.470;2023-11-19T13:24:43;100437.66;;;14.46;97.17
10897;BME280;5501;51.176;6.470;2023-11-19T13:29:44;100435.34;;;14.57;95.70
10897;BME280;5501;51.176;6.470;2023-11-19T13:34:46;100434.56;;;14.36;96.37
10897;BME280;5501;51.176;6.470;2023-11-19T13:39:48;100424.44;;;14.43;96.69
10897;BME280;5501;51.176;6.470;2023-11-19T13:44:50;100418.66;;;14.52;95.63
10897;BME280;5501;51.176;6.470;2023-11-19T13:49:52;100415.47;;;14.44;94.26
10897;BME280;5501;51.176;6.470;2023-11-19T13:54:54;100420.38;;;14.53;93.22
10897;BME280;5501;51.176;6.470;2023-11-19T13:59:55;100414.59;;;14.43;94.45
10897;BME280;5501;51.176;6.470;2023-11-19T14:04:57;100405.22;;;14.35;95.15
10897;BME280;5501;51.176;6.470;2023-11-19T14:09:59;100405.81;;;14.23;98.90
10897;BME280;5501;51.176;6.470;2023-11-19T14:15:01;100394.50;;;13.98;100.00
10897;BME280;5501;51.176;6.470;2023-11-19T14:20:03;100400.69;;;13.80;100.00
10897;BME280;5501;51.176;6.470;2023-11-19T14:25:15;100413.81;;;13.66;100.00
10897;BME280;5501;51.176;6.470;2023-11-19T14:30:16;100412.47;;;13.56;100.00
10897;BME280;5501;51.176;6.470;2023-11-19T14:35:18;100412.09;;;13.65;100.00
10897;BME280;5501;51.176;6.470;2023-11-19T14:40:21;100405.22;;;13.39;100.00
10897;BME280;5501;51.176;6.470;2023-11-19T14:45:23;100413.72;;;13.49;100.00
10897;BME280;5501;51.176;6.470;2023-11-19T14:50:24;100397.75;;;13.47;100.00
10897;BME280;5501;51.176;6.470;2023-11-19T14:55:26;100421.84;;;13.46;100.00
10897;BME280;5501;51.176;6.470;2023-11-19T15:00:28;100409.50;;;13.03;100.00
10897;BME280;5501;51.176;6.470;2023-11-19T15:05:30;100404.94;;;13.05;100.00
10897;BME280;5501;51.176;6.470;2023-11-19T15:10:31;100401.53;;;13.02;100.00
10897;BME280;5501;51.176;6.470;2023-11-19T15:15:33;100395.56;;;13.17;100.00
10897;BME280;5501;51.176;6.470;2023-11-19T15:20:37;100398.75;;;13.05;100.00
10897;BME280;5501;51.176;6.470;2023-11-19T15:25:39;100380.25;;;13.20;100.00
10897;BME280;5501;51.176;6.470;2023-11-19T15:30:40;100391.69;;;13.04;100.00
10897;BME280;5501;51.176;6.470;2023-11-19T15:35:42;100386.59;;;12.98;100.00
10897;BME280;5501;51.176;6.470;2023-11-19T15:40:44;100384.34;;;13.09;100.00
10897;BME280;5501;51.176;6.470;2023-11-19T15:45:46;100385.00;;;13.14;100.00
10897;BME280;5501;51.176;6.470;2023-11-19T15:50:48;100380.19;;;13.22;100.00
10897;BME280;5501;51.176;6.470;2023-11-19T15:55:51;100383.94;;;13.18;100.00
10897;BME280;5501;51.176;6.470;2023-11-19T16:00:54;100392.22;;;13.12;100.00
10897;BME280;5501;51.176;6.470;2023-11-19T16:05:57;100379.41;;;13.00;100.00
10897;BME280;5501;51.176;6.470;2023-11-19T16:11:10;100388.06;;;13.05;100.00
10897;BME280;5501;51.176;6.470;2023-11-19T16:16:11;100372.91;;;13.05;100.00
10897;BME280;5501;51.176;6.470;2023-11-19T16:21:13;100369.69;;;12.97;100.00
10897;BME280;5501;51.176;6.470;2023-11-19T16:26:15;100371.38;;;13.00;100.00
10897;BME280;5501;51.176;6.470;2023-11-19T16:31:17;100375.56;;;13.05;100.00
10897;BME280;5501;51.176;6.470;2023-11-19T16:36:19;100387.00;;;13.09;100.00
10897;BME280;5501;51.176;6.470;2023-11-19T16:41:20;100390.88;;;13.22;100.00
10897;BME280;5501;51.176;6.470;2023-11-19T16:46:40;100392.34;;;13.29;100.00
10897;BME280;5501;51.176;6.470;2023-11-19T16:51:45;100394.06;;;13.30;100.00
10897;BME280;5501;51.176;6.470;2023-11-19T16:56:47;100385.16;;;13.49;100.00
10897;BME280;5501;51.176;6.470;2023-11-19T17:01:49;100397.16;;;13.41;100.00
10897;BME280;5501;51.176;6.470;2023-11-19T17:06:51;100388.97;;;13.24;100.00
10897;BME280;5501;51.176;6.470;2023-11-19T17:11:53;100391.81;;;13.21;100.00
10897;BME280;5501;51.176;6.470;2023-11-19T17:16:54;100392.94;;;13.35;100.00
10897;BME280;5501;51.176;6.470;2023-11-19T17:21:56;100392.06;;;13.35;100.00
10897;BME280;5501;51.176;6.470;2023-11-19T17:26:58;100382.50;;;13.29;99.75
10897;BME280;5501;51.176;6.470;2023-11-19T17:32:00;100370.28;;;13.44;99.02
10897;BME280;5501;51.176;6.470;2023-11-19T17:37:01;100387.25;;;13.23;99.29
10897;BME280;5501;51.176;6.470;2023-11-19T17:42:03;100389.25;;;13.38;97.93
10897;BME280;5501;51.176;6.470;2023-11-19T17:47:05;100379.91;;;13.28;98.99
10897;BME280;5501;51.176;6.470;2023-11-19T17:52:07;100376.97;;;13.34;98.23
10897;BME280;5501;51.176;6.470;2023-11-19T17:57:08;100384.47;;;13.26;97.78
10897;BME280;5501;51.176;6.470;2023-11-19T18:02:10;100376.38;;;13.47;96.20
10897;BME280;5501;51.176;6.470;2023-11-19T18:07:11;100389.94;;;13.23;99.05
10897;BME280;5501;51.176;6.470;2023-11-19T18:12:13;100386.59;;;13.18;100.00
10897;BME280;5501;51.176;6.470;2023-11-19T18:17:17;100386.19;;;12.85;100.00
10897;BME280;5501;51.176;6.470;2023-11-19T18:22:19;100379.16;;;12.63;100.00
10897;BME280;5501;51.176;6.470;2023-11-19T18:27:20;100378.91;;;12.69;100.00
10897;BME280;5501;51.176;6.470;2023-11-19T18:32:22;100376.56;;;12.61;100.00
10897;BME280;5501;51.176;6.470;2023-11-19T18:37:24;100382.13;;;12.77;100.00
10897;BME280;5501;51.176;6.470;2023-11-19T18:42:28;100379.31;;;12.60;100.00
10897;BME280;5501;51.176;6.470;2023-11-19T18:47:31;100386.25;;;12.64;100.00
10897;BME280;5501;51.176;6.470;2023-11-19T18:52:34;100378.81;;;12.50;100.00
10897;BME280;5501;51.176;6.470;2023-11-19T18:57:36;100373.59;;;12.47;100.00
10897;BME280;5501;51.176;6.470;2023-11-19T19:02:37;100364.41;;;12.33;100.00
10897;BME280;5501;51.176;6.470;2023-11-19T19:07:39;100366.53;;;12.46;100.00
10897;BME280;5501;51.176;6.470;2023-11-19T19:12:41;100359.94;;;12.55;100.00
10897;BME280;5501;51.176;6.470;2023-11-19T19:17:46;100378.81;;;12.50;100.00
10897;BME280;5501;51.176;6.470;2023-11-19T19:22:47;100374.31;;;12.51;100.00
10897;BME280;5501;51.176;6.470;2023-11-19T19:27:49;100364.75;;;12.47;100.00
10897;BME280;5501;51.176;6.470;2023-11-19T19:33:10;100360.06;;;12.30;100.00
10897;BME280;5501;51.176;6.470;2023-11-19T19:38:13;100357.72;;;12.23;100.00
10897;BME280;5501;51.176;6.470;2023-11-19T19:43:15;100361.06;;;12.28;100.00
10897;BME280;5501;51.176;6.470;2023-11-19T19:48:16;100360.69;;;12.15;100.00
10897;BME280;5501;51.176;6.470;2023-11-19T19:53:18;100361.06;;;12.28;100.00
10897;BME280;5501;51.176;6.470;2023-11-19T19:58:19;100359.06;;;12.33;100.00
10897;BME280;5501;51.176;6.470;2023-11-19T20:03:21;100351.34;;;12.27;100.00
10897;BME280;5501;51.176;6.470;2023-11-19T20:08:23;100351.19;;;12.30;100.00
10897;BME280;5501;51.176;6.470;2023-11-19T20:13:26;100342.63;;;12.22;100.00
10897;BME280;5501;51.176;6.470;2023-11-19T20:18:29;100353.19;;;12.25;100.00
10897;BME280;5501;51.176;6.470;2023-11-19T20:23:34;100358.06;;;12.14;100.00
10897;BME280;5501;51.176;6.470;2023-11-19T20:28:36;100359.19;;;12.30;100.00
10897;BME280;5501;51.176;6.470;2023-11-19T20:33:38;100364.19;;;12.39;100.00
10897;BME280;5501;51.176;6.470;2023-11-19T20:38:40;100360.56;;;12.40;100.00
10897;BME280;5501;51.176;6.470;2023-11-19T20:43:41;100358.91;;;12.37;100.00
10897;BME280;5501;51.176;6.470;2023-11-19T20:48:43;100353.13;;;12.26;100.00
10897;BME280;5501;51.176;6.470;2023-11-19T20:53:44;100357.84;;;12.20;100.00
10897;BME280;5501;51.176;6.470;2023-11-19T20:58:46;100371.13;;;12.43;100.00
10897;BME280;5501;51.176;6.470;2023-11-19T21:03:47;100384.81;;;12.34;100.00
10897;BME280;5501;51.176;6.470;2023-11-19T21:08:49;100375.03;;;12.56;100.00
10897;BME280;5501;51.176;6.470;2023-11-19T21:13:52;100379.31;;;12.38;100.00
10897;BME280;5501;51.176;6.470;2023-11-19T21:18:54;100369.38;;;12.42;100.00
10897;BME280;5501;51.176;6.470;2023-11-19T21:23:55;100368.25;;;12.47;100.00
10897;BME280;5501;51.176;6.470;2023-11-19T21:28:57;100376.19;;;12.27;100.00
10897;BME280;5501;51.176;6.470;2023-11-19T21:33:59;100372.91;;;12.21;100.00
10897;BME280;5501;51.176;6.470;2023-11-19T21:39:01;100381.28;;;12.33;100.00
10897;BME280;5501;51.176;6.470;2023-11-19T21:44:02;100387.72;;;12.28;100.00
10897;BME280;5501;51.176;6.470;2023-11-19T21:49:04;100396.03;;;12.42;100.00
10897;BME280;5501;51.176;6.470;2023-11-19T21:54:06;100388.34;;;12.34;100.00
10897;BME280;5501;51.176;6.470;2023-11-19T21:59:07;100395.66;;;12.51;100.00
10897;BME280;5501;51.176;6.470;2023-11-19T22:04:09;100387.34;;;12.37;100.00
10897;BME280;5501;51.176;6.470;2023-11-19T22:09:11;100382.97;;;12.36;100.00
10897;BME280;5501;51.176;6.470;2023-11-19T22:14:15;100392.09;;;12.52;100.00
10897;BME280;5501;51.176;6.470;2023-11-19T22:19:16;100393.69;;;12.56;100.00
10897;BME280;5501;51.176;6.470;2023-11-19T22:24:18;100405.47;;;12.50;100.00
10897;BME280;5501;51.176;6.470;2023-11-19T22:29:19;100420.75;;;12.47;100.00
10897;BME280;5501;51.176;6.470;2023-11-19T22:34:21;100408.31;;;12.46;100.00
10897;BME280;5501;51.176;6.470;2023-11-19T22:39:23;100404.38;;;12.56;100.00
10897;BME280;5501;51.176;6.470;2023-11-19T22:44:25;100396.97;;;12.41;100.00
10897;BME280;5501;51.176;6.470;2023-11-19T22:49:26;100404.75;;;12.47;100.00
10897;BME280;5501;51.176;6.470;2023-11-19T22:54:29;100407.53;;;12.44;100.00
10897;BME280;5501;51.176;6.470;2023-11-19T22:59:31;100409.44;;;12.62;100.00
10897;BME280;5501;51.176;6.470;2023-11-19T23:04:32;100403.34;;;12.37;100.00
10897;BME280;5501;51.176;6.470;2023-11-19T23:09:34;100420.75;;;12.47;100.00
10897;BME280;5501;51.176;6.470;2023-11-19T23:14:35;100409.31;;;12.65;100.00
10897;BME280;5501;51.176;6.470;2023-11-19T23:19:37;100412.16;;;12.82;100.00
10897;BME280;5501;51.176;6.470;2023-11-19T23:24:38;100418.47;;;12.79;100.00
10897;BME280;5501;51.176;6.470;2023-11-19T23:29:40;100414.38;;;12.71;100.00
10897;BME280;5501;51.176;6.470;2023-11-19T23:34:41;100413.75;;;12.86;100.00
10897;BME280;5501;51.176;6.470;2023-11-19T23:39:45;100406.38;;;12.71;100.00
10897;BME280;5501;51.176;6.470;2023-11-19T23:44:46;100409.53;;;12.80;100.00
10897;BME280;5501;51.176;6.470;2023-11-19T23:49:48;100413.59;;;12.69;100.00
10897;BME280;5501;51.176;6.470;2023-11-19T23:54:50;100414.38;;;12.71;100.00
10897;BME280;5501;51.176;6.470;2023-11-19T23:59:52;100416.44;;;12.86;100.00
